Time;durP1;ratioP1;P1;durP2;ratioP2;P2;SDS_P1;SDS_P2;PMS_P1;PMS_P2;Temp;Humidity;BMP_temperature;BMP_pressure;BME280_temperature;BME280_humidity;BME280_pressure;Samples;Min_cycle;Max_cycle;Signal;HPM_P1;HPM_P2
2022/05/29 00:00:55;;;;;;;5.87;2.57;;;14.70;81.80;;;;;;5113870;28;20446;-58
2022/05/29 00:03:22;;;;;;;4.00;2.80;;;14.60;83.50;;;;;;5113561;28;20948;-58
2022/05/29 00:05:51;;;;;;;3.27;2.30;;;14.60;83.30;;;;;;5117364;28;20533;-58
2022/05/29 00:08:26;;;;;;;5.03;2.70;;;14.60;84.10;;;;;;5117704;28;20581;-58
2022/05/29 00:10:54;;;;;;;2.70;2.50;;;14.50;83.70;;;;;;5117587;28;20436;-58
2022/05/29 00:13:22;;;;;;;2.77;2.50;;;14.60;84.50;;;;;;5117529;28;20461;-58
2022/05/29 00:15:49;;;;;;;8.03;2.73;;;14.60;85.60;;;;;;5117769;28;20746;-58
2022/05/29 00:18:16;;;;;;;3.30;2.77;;;14.50;84.80;;;;;;5117298;28;20929;-58
2022/05/29 00:20:49;;;;;;;3.70;2.87;;;14.50;84.00;;;;;;5117311;28;20443;-58
2022/05/29 00:23:16;;;;;;;3.10;2.80;;;14.50;84.10;;;;;;5117356;28;20905;-58
2022/05/29 00:25:48;;;;;;;5.80;3.37;;;14.40;84.30;;;;;;5117077;28;20438;-58
2022/05/29 00:28:15;;;;;;;3.30;3.00;;;14.40;85.90;;;;;;5117092;28;20469;-58
2022/05/29 00:30:42;;;;;;;4.70;2.90;;;14.50;86.50;;;;;;5117111;28;20452;-58
2022/05/29 00:33:10;;;;;;;3.70;2.60;;;14.50;85.90;;;;;;5117433;28;20529;-58
2022/05/29 00:35:39;;;;;;;4.63;3.20;;;14.40;86.20;;;;;;5117647;28;20466;-58
2022/05/29 00:38:06;;;;;;;3.27;2.97;;;14.40;86.20;;;;;;5116903;28;20937;-58
2022/05/29 00:40:40;;;;;;;3.20;2.90;;;14.40;87.20;;;;;;5117293;28;20442;-58
2022/05/29 00:43:09;;;;;;;3.40;3.03;;;14.30;87.30;;;;;;5117166;28;20457;-58
2022/05/29 00:45:48;;;;;;;3.80;3.30;;;14.30;86.90;;;;;;5116974;28;20557;-58
2022/05/29 00:48:17;;;;;;;7.73;2.90;;;14.20;86.80;;;;;;5117479;28;20476;-58
2022/05/29 00:50:46;;;;;;;3.63;2.70;;;14.20;87.20;;;;;;5116757;28;20933;-58
2022/05/29 00:53:14;;;;;;;3.67;3.30;;;14.30;87.30;;;;;;5117030;28;20468;-58
2022/05/29 00:55:43;;;;;;;5.30;2.70;;;14.20;87.10;;;;;;5116868;28;20486;-58
2022/05/29 00:58:12;;;;;;;2.90;2.70;;;14.20;87.80;;;;;;5116689;28;20781;-58
2022/05/29 01:00:39;;;;;;;3.50;2.63;;;14.20;88.60;;;;;;5116627;28;20537;-58
2022/05/29 01:03:07;;;;;;;3.93;2.63;;;14.20;89.10;;;;;;5116850;28;20529;-58
2022/05/29 01:05:36;;;;;;;3.63;3.13;;;14.10;88.30;;;;;;5116756;28;20446;-58
2022/05/29 01:08:09;;;;;;;4.67;3.13;;;14.10;88.60;;;;;;5116315;28;20427;-58
2022/05/29 01:10:48;;;;;;;3.00;2.77;;;14.10;88.60;;;;;;5116403;28;20913;-58
2022/05/29 01:13:28;;;;;;;4.00;2.90;;;14.10;87.90;;;;;;5116342;28;20515;-58
2022/05/29 01:16:02;;;;;;;8.80;3.10;;;14.10;87.60;;;;;;5116566;28;20506;-58
2022/05/29 01:18:36;;;;;;;4.77;3.00;;;14.10;88.00;;;;;;5116504;28;20467;-58
2022/05/29 01:21:20;;;;;;;3.83;2.87;;;14.20;88.90;;;;;;5116613;28;20449;-58
2022/05/29 01:24:28;;;;;;;4.83;2.83;;;14.20;89.60;;;;;;5116178;28;20426;-58
2022/05/29 01:27:30;;;;;;;5.13;3.20;;;14.20;89.50;;;;;;5116126;28;20433;-58
2022/05/29 01:30:07;;;;;;;3.50;2.77;;;14.00;89.80;;;;;;5115915;28;20485;-58
2022/05/29 01:32:41;;;;;;;3.13;2.83;;;13.90;90.70;;;;;;5116295;28;20439;-58
2022/05/29 01:35:14;;;;;;;3.20;2.90;;;14.00;89.90;;;;;;5115950;28;20434;-58
2022/05/29 01:37:51;;;;;;;4.07;2.70;;;14.00;91.00;;;;;;5116250;28;20441;-58
2022/05/29 01:40:27;;;;;;;2.63;2.43;;;14.00;90.50;;;;;;5116017;28;20462;-58
2022/05/29 01:42:58;;;;;;;3.27;2.97;;;13.90;90.10;;;;;;5116278;28;20461;-58
2022/05/29 01:45:33;;;;;;;2.63;2.43;;;14.00;90.60;;;;;;5115563;28;20474;-58
2022/05/29 01:48:04;;;;;;;4.17;2.70;;;13.90;90.20;;;;;;5115994;28;20433;-58
2022/05/29 01:50:36;;;;;;;3.20;2.63;;;13.90;90.10;;;;;;5115632;28;20427;-58
2022/05/29 01:53:11;;;;;;;4.43;3.40;;;14.00;90.20;;;;;;5115595;28;20434;-58
2022/05/29 01:55:43;;;;;;;3.23;2.93;;;14.00;90.10;;;;;;5115364;28;20454;-58
2022/05/29 01:58:13;;;;;;;3.57;2.73;;;13.90;89.50;;;;;;5116329;28;20434;-58
2022/05/29 02:00:43;;;;;;;8.57;2.80;;;13.90;89.70;;;;;;5115831;28;20858;-58
2022/05/29 02:03:14;;;;;;;2.83;2.63;;;14.00;90.00;;;;;;5115329;28;20453;-58
2022/05/29 02:05:45;;;;;;;3.23;2.73;;;13.90;89.40;;;;;;5115655;28;20427;-58
2022/05/29 02:08:17;;;;;;;5.17;2.90;;;13.90;90.10;;;;;;5115476;28;20423;-58
2022/05/29 02:10:49;;;;;;;5.73;3.10;;;13.90;90.20;;;;;;5115622;28;20407;-58
2022/05/29 02:13:21;;;;;;;6.57;3.53;;;13.80;90.30;;;;;;5115460;28;20450;-58
2022/05/29 02:15:54;;;;;;;6.60;3.00;;;13.80;90.50;;;;;;5115095;28;20447;-58
2022/05/29 02:18:26;;;;;;;2.83;2.60;;;13.70;90.70;;;;;;5115014;28;20427;-58
2022/05/29 02:20:59;;;;;;;3.33;2.93;;;13.70;90.90;;;;;;5115891;28;20435;-58
2022/05/29 02:23:32;;;;;;;5.17;3.00;;;13.60;90.70;;;;;;5115050;28;20915;-58
2022/05/29 02:26:01;;;;;;;4.17;2.47;;;13.60;90.90;;;;;;5115132;28;20518;-58
2022/05/29 02:28:34;;;;;;;3.80;2.90;;;13.50;90.80;;;;;;5115369;28;20491;-58
2022/05/29 02:31:14;;;;;;;6.00;3.23;;;13.50;91.70;;;;;;5114812;28;20433;-58
2022/05/29 02:33:57;;;;;;;3.10;2.80;;;13.50;90.70;;;;;;5114840;28;20919;-58
2022/05/29 02:36:36;;;;;;;3.80;2.93;;;13.50;90.90;;;;;;5115060;28;20450;-58
2022/05/29 02:39:30;;;;;;;3.30;3.00;;;13.50;91.40;;;;;;5114770;28;20450;-58
2022/05/29 02:42:19;;;;;;;3.73;2.70;;;13.40;91.00;;;;;;5114653;28;20432;-58
2022/05/29 02:44:56;;;;;;;3.30;2.53;;;13.30;91.30;;;;;;5115154;28;20447;-58
2022/05/29 02:47:32;;;;;;;3.67;3.10;;;13.20;91.30;;;;;;5115297;28;20403;-58
2022/05/29 02:50:18;;;;;;;5.83;2.60;;;13.40;92.00;;;;;;5114708;28;20486;-58
2022/05/29 02:52:46;;;;;;;2.67;2.47;;;13.50;92.00;;;;;;5114461;28;20833;-58
2022/05/29 02:55:13;;;;;;;5.27;3.20;;;13.50;91.70;;;;;;5114588;28;20474;-58
2022/05/29 02:57:41;;;;;;;5.80;3.40;;;13.60;91.20;;;;;;5114695;28;20446;-58
2022/05/29 03:00:12;;;;;;;5.67;5.27;;;13.50;91.10;;;;;;5114259;28;20865;-58
2022/05/29 03:02:49;;;;;;;6.33;3.30;;;13.40;91.00;;;;;;5114313;28;20962;-58
2022/05/29 03:05:24;;;;;;;6.50;2.93;;;13.40;91.60;;;;;;5114293;28;20897;-58
2022/05/29 03:08:10;;;;;;;3.50;3.20;;;13.50;91.80;;;;;;5114575;28;20406;-58
2022/05/29 03:10:43;;;;;;;2.60;2.40;;;13.40;91.40;;;;;;5114150;28;20972;-58
2022/05/29 03:13:15;;;;;;;3.40;3.17;;;13.30;91.50;;;;;;5114371;28;20470;-58
2022/05/29 03:15:55;;;;;;;3.60;2.77;;;13.30;91.10;;;;;;5114175;28;20920;-58
2022/05/29 03:18:40;;;;;;;4.13;2.80;;;13.30;91.50;;;;;;5114865;28;20484;-58
2022/05/29 03:21:12;;;;;;;5.73;3.40;;;13.30;91.50;;;;;;5114004;28;20430;-58
2022/05/29 03:23:50;;;;;;;5.93;2.70;;;13.20;91.00;;;;;;5114197;28;20430;-58
2022/05/29 03:26:23;;;;;;;3.30;3.00;;;13.20;91.50;;;;;;5113873;28;20446;-58
2022/05/29 03:29:00;;;;;;;3.37;3.07;;;13.30;91.50;;;;;;5113888;28;20450;-58
2022/05/29 03:31:30;;;;;;;3.30;2.50;;;13.30;91.20;;;;;;5114249;28;20426;-58
2022/05/29 03:33:59;;;;;;;3.90;2.87;;;13.20;91.10;;;;;;5113900;28;20796;-58
2022/05/29 03:36:28;;;;;;;5.57;3.10;;;13.30;91.60;;;;;;5113908;28;20537;-58
2022/05/29 03:38:55;;;;;;;6.53;2.53;;;13.20;91.00;;;;;;5114342;28;20485;-58
2022/05/29 03:41:29;;;;;;;3.93;2.87;;;13.20;91.30;;;;;;5118477;28;20800;-58
2022/05/29 03:43:56;;;;;;;6.13;2.93;;;13.20;91.40;;;;;;5118275;28;20455;-58
2022/05/29 03:46:23;;;;;;;5.50;2.90;;;13.20;91.40;;;;;;5117877;28;20482;-58
2022/05/29 03:48:50;;;;;;;3.20;2.90;;;13.20;91.70;;;;;;5118208;28;20468;-58
2022/05/29 03:51:19;;;;;;;3.30;3.00;;;13.20;91.80;;;;;;5118248;28;20568;-58
2022/05/29 03:53:46;;;;;;;2.70;2.50;;;13.20;92.10;;;;;;5118194;28;20472;-58
2022/05/29 03:56:13;;;;;;;4.20;3.20;;;13.10;92.10;;;;;;5118046;28;20537;-59
2022/05/29 03:58:40;;;;;;;4.97;3.77;;;13.10;92.60;;;;;;5118550;28;20470;-58
2022/05/29 04:01:08;;;;;;;3.33;3.03;;;13.00;93.30;;;;;;5117805;28;20450;-58
2022/05/29 04:03:35;;;;;;;3.33;3.03;;;13.00;92.50;;;;;;5117712;28;20989;-58
2022/05/29 04:06:02;;;;;;;3.77;3.23;;;13.00;92.70;;;;;;5117664;28;20446;-58
2022/05/29 04:14:01;;;;;;;3.93;3.23;;;12.90;92.70;;;;;;5118375;28;20784;-57
2022/05/29 04:16:28;;;;;;;3.20;2.73;;;12.80;92.10;;;;;;5118560;28;20446;-58
2022/05/29 04:18:56;;;;;;;10.73;3.60;;;12.80;93.50;;;;;;5117654;28;20458;-58
2022/05/29 04:21:23;;;;;;;4.50;3.03;;;12.80;92.80;;;;;;5118183;28;20449;-58
2022/05/29 04:23:52;;;;;;;3.87;3.07;;;12.60;94.20;;;;;;5117674;28;20477;-57
2022/05/29 04:26:19;;;;;;;4.40;3.43;;;12.60;95.80;;;;;;5117145;28;21000;-57
2022/05/29 04:28:47;;;;;;;8.73;3.37;;;12.60;96.80;;;;;;5117198;28;21023;-58
2022/05/29 04:31:14;;;;;;;3.30;3.00;;;12.60;98.00;;;;;;5117355;28;20519;-58
2022/05/29 04:33:41;;;;;;;3.80;3.40;;;12.40;98.30;;;;;;5117193;28;20433;-58
2022/05/29 04:36:08;;;;;;;4.63;3.20;;;12.10;99.40;;;;;;5117140;28;20537;-58
2022/05/29 04:38:35;;;;;;;6.10;3.67;;;11.90;99.20;;;;;;5116996;28;20466;-58
2022/05/29 04:41:08;;;;;;;3.83;3.50;;;11.90;99.30;;;;;;5116956;28;20807;-58
2022/05/29 04:43:37;;;;;;;4.40;3.57;;;12.00;99.90;;;;;;5117303;28;20476;-57
2022/05/29 04:46:04;;;;;;;5.33;3.77;;;12.00;99.90;;;;;;5116755;28;20463;-57
2022/05/29 04:48:32;;;;;;;3.90;3.50;;;12.10;99.90;;;;;;5116783;28;20969;-57
2022/05/29 04:51:00;;;;;;;3.73;3.43;;;11.60;99.90;;;;;;5117098;28;20481;-57
2022/05/29 04:53:28;;;;;;;4.80;3.80;;;11.30;99.90;;;;;;5117064;28;20552;-57
2022/05/29 04:55:57;;;;;;;7.10;4.07;;;11.20;99.90;;;;;;5116566;28;20446;-57
2022/05/29 04:58:28;;;;;;;6.43;3.90;;;11.10;99.90;;;;;;5116927;28;20466;-58
2022/05/29 05:00:57;;;;;;;9.03;4.40;;;11.10;99.90;;;;;;5116973;28;20448;-58
2022/05/29 05:03:25;;;;;;;4.43;4.03;;;11.10;99.90;;;;;;5116857;28;20447;-57
2022/05/29 05:05:52;;;;;;;7.10;4.70;;;11.10;99.90;;;;;;5116546;28;20442;-57
2022/05/29 05:08:19;;;;;;;4.03;3.73;;;11.00;99.90;;;;;;5116481;28;20446;-57
2022/05/29 05:10:46;;;;;;;7.33;4.33;;;11.20;99.90;;;;;;5116703;28;20478;-57
2022/05/29 05:13:14;;;;;;;6.03;4.77;;;11.20;99.90;;;;;;5116761;28;20434;-57
2022/05/29 05:15:42;;;;;;;4.47;4.03;;;11.30;99.90;;;;;;5117230;28;20434;-57
2022/05/29 05:18:09;;;;;;;4.60;3.57;;;11.50;99.90;;;;;;5116514;28;20454;-57
2022/05/29 05:20:38;;;;;;;3.73;3.50;;;11.70;99.90;;;;;;5116609;28;20445;-57
2022/05/29 05:23:06;;;;;;;4.60;4.00;;;11.70;99.90;;;;;;5116237;28;20449;-57
2022/05/29 05:25:33;;;;;;;5.43;3.57;;;11.50;99.90;;;;;;5110805;28;20450;-57
2022/05/29 05:28:00;;;;;;;9.43;4.60;;;11.60;99.90;;;;;;5096058;28;20455;-57
2022/05/29 05:30:27;;;;;;;8.23;3.90;;;11.50;99.90;;;;;;5095916;28;20479;-58
2022/05/29 05:32:56;;;;;;;6.37;5.63;;;11.40;99.90;;;;;;5095953;28;20513;-57
2022/05/29 05:35:23;;;;;;;5.07;4.40;;;11.40;99.90;;;;;;5095849;28;20443;-57
2022/05/29 05:37:50;;;;;;;8.40;4.70;;;11.60;99.90;;;;;;5095574;28;20442;-58
2022/05/29 05:40:17;;;;;;;6.17;4.30;;;11.60;99.90;;;;;;5095500;28;20452;-58
2022/05/29 05:42:45;;;;;;;5.40;3.60;;;11.70;99.90;;;;;;5096542;28;20446;-57
2022/05/29 05:45:14;;;;;;;6.30;4.20;;;11.80;99.90;;;;;;5095398;28;20479;-57
2022/05/29 05:47:41;;;;;;;5.83;4.40;;;11.90;99.90;;;;;;5095559;28;20419;-58
2022/05/29 05:50:12;;;;;;;5.30;3.90;;;12.00;99.90;;;;;;5095138;28;20490;-57
2022/05/29 05:52:40;;;;;;;4.23;3.63;;;12.10;99.90;;;;;;5095256;28;20452;-57
2022/05/29 05:55:10;;;;;;;5.63;4.27;;;12.10;99.90;;;;;;5095025;28;20897;-58
2022/05/29 05:57:38;;;;;;;3.80;3.50;;;12.10;99.90;;;;;;5095199;28;20443;-58
2022/05/29 06:00:07;;;;;;;4.60;3.97;;;12.10;99.90;;;;;;5094965;28;20466;-57
2022/05/29 06:02:34;;;;;;;3.40;3.10;;;12.50;99.90;;;;;;5093738;28;20455;-58
2022/05/29 06:05:01;;;;;;;3.97;3.43;;;12.60;99.90;;;;;;5095283;28;20451;-57
2022/05/29 06:07:30;;;;;;;3.23;2.93;;;12.70;99.90;;;;;;5094922;28;20455;-58
2022/05/29 06:09:57;;;;;;;5.90;4.00;;;12.70;99.90;;;;;;5094711;28;20489;-57
2022/05/29 06:12:24;;;;;;;7.43;3.17;;;12.70;99.90;;;;;;5095462;28;20518;-57
2022/05/29 06:14:53;;;;;;;4.00;3.70;;;12.70;99.90;;;;;;5095199;28;20462;-58
2022/05/29 06:17:20;;;;;;;7.90;3.70;;;12.50;99.90;;;;;;5094974;28;20596;-58
2022/05/29 06:19:48;;;;;;;4.23;3.40;;;12.60;99.90;;;;;;5094616;28;20546;-58
2022/05/29 06:22:15;;;;;;;5.17;3.30;;;12.60;99.90;;;;;;5094460;28;20455;-57
2022/05/29 06:24:44;;;;;;;3.30;3.00;;;12.60;99.90;;;;;;5094575;28;21055;-57
2022/05/29 06:27:11;;;;;;;4.00;2.90;;;12.80;99.90;;;;;;5094400;28;20447;-58
2022/05/29 06:29:38;;;;;;;5.27;3.17;;;12.90;99.90;;;;;;5094706;28;20463;-57
2022/05/29 06:32:08;;;;;;;3.37;3.10;;;13.00;99.90;;;;;;5094423;28;20450;-57
2022/05/29 06:34:36;;;;;;;4.40;2.90;;;13.10;99.90;;;;;;5094807;28;20809;-57
2022/05/29 06:37:05;;;;;;;3.80;2.77;;;13.40;99.90;;;;;;5094364;28;20922;-58
2022/05/29 06:39:32;;;;;;;6.27;4.47;;;13.70;99.90;;;;;;5094504;28;20467;-58
2022/05/29 06:42:06;;;;;;;5.93;3.10;;;14.00;99.90;;;;;;5094214;28;20449;-58
2022/05/29 06:44:34;;;;;;;3.90;3.00;;;14.10;99.90;;;;;;5094483;28;20800;-58
2022/05/29 06:47:07;;;;;;;9.83;3.53;;;13.90;99.90;;;;;;5094010;28;20479;-58
2022/05/29 06:49:34;;;;;;;3.93;2.80;;;13.70;99.90;;;;;;5094330;28;20473;-58
2022/05/29 06:52:07;;;;;;;4.93;3.00;;;13.80;99.90;;;;;;5094074;28;20447;-58
2022/05/29 06:54:34;;;;;;;3.40;2.57;;;13.80;99.90;;;;;;5093954;28;20754;-58
2022/05/29 06:57:02;;;;;;;4.27;2.80;;;13.90;99.90;;;;;;5093734;28;20449;-58
2022/05/29 06:59:31;;;;;;;4.47;2.87;;;14.10;99.90;;;;;;5094136;28;20498;-58
2022/05/29 07:07:41;;;;;;;3.03;2.47;;;14.50;99.90;;;;;;5031858;28;20460;-58
2022/05/29 07:10:09;;;;;;;3.47;2.50;;;14.30;99.90;;;;;;5066259;28;20566;-58
2022/05/29 07:12:36;;;;;;;2.77;2.57;;;14.30;99.90;;;;;;5094076;28;20844;-57
2022/05/29 07:15:07;;;;;;;3.03;2.47;;;14.20;99.90;;;;;;5094184;28;20479;-58
2022/05/29 07:17:35;;;;;;;2.53;2.33;;;14.20;99.90;;;;;;5094016;28;20922;-58
2022/05/29 07:20:03;;;;;;;2.27;2.03;;;14.40;99.90;;;;;;5093582;28;20811;-58
2022/05/29 07:22:31;;;;;;;2.87;2.60;;;14.60;99.90;;;;;;5093675;28;20479;-58
2022/05/29 07:24:58;;;;;;;4.13;3.00;;;14.50;99.90;;;;;;5093474;28;20538;-57
2022/05/29 07:27:26;;;;;;;4.50;3.00;;;14.60;99.90;;;;;;5093921;28;20538;-58
2022/05/29 07:29:53;;;;;;;4.23;2.43;;;14.60;99.90;;;;;;5093709;28;20470;-58
2022/05/29 07:32:23;;;;;;;4.83;2.87;;;14.30;99.90;;;;;;5093840;28;20455;-57
2022/05/29 07:34:51;;;;;;;6.60;2.93;;;14.40;99.90;;;;;;5093619;28;20917;-58
2022/05/29 07:37:18;;;;;;;4.77;2.50;;;14.50;99.90;;;;;;5093490;28;20447;-58
2022/05/29 07:39:49;;;;;;;6.83;2.97;;;14.70;99.90;;;;;;5093743;28;20463;-58
2022/05/29 07:45:01;;;;;;;4.03;2.93;;;14.70;99.90;;;;;;5093753;28;20943;-58
2022/05/29 07:47:36;;;;;;;5.93;2.47;;;14.90;99.90;;;;;;5093817;28;20428;-58
2022/05/29 07:50:05;;;;;;;5.27;3.03;;;14.80;99.90;;;;;;5093256;28;20473;-57
2022/05/29 07:52:32;;;;;;;9.10;2.70;;;14.80;99.30;;;;;;5093321;28;20454;-57
2022/05/29 07:54:59;;;;;;;6.77;2.77;;;15.00;99.70;;;;;;5093476;28;20530;-58
2022/05/29 07:57:27;;;;;;;3.10;2.60;;;15.10;99.10;;;;;;5093537;28;20945;-58
2022/05/29 07:59:54;;;;;;;3.77;2.73;;;15.40;99.90;;;;;;5093196;28;20501;-58
2022/05/29 08:02:21;;;;;;;5.53;2.60;;;15.60;99.90;;;;;;5093222;28;20447;-58
2022/05/29 08:04:50;;;;;;;5.40;2.90;;;15.60;99.40;;;;;;5093974;28;20505;-58
2022/05/29 08:07:19;;;;;;;2.57;2.37;;;15.70;99.30;;;;;;5093199;28;20453;-58
2022/05/29 08:09:47;;;;;;;3.23;2.43;;;15.10;99.10;;;;;;5093394;28;20554;-58
2022/05/29 08:12:14;;;;;;;4.40;2.37;;;14.90;99.70;;;;;;5093084;28;20475;-58
2022/05/29 08:14:41;;;;;;;3.33;1.83;;;14.70;99.50;;;;;;5093596;28;20455;-58
2022/05/29 08:17:09;;;;;;;5.07;2.93;;;14.70;99.90;;;;;;5093400;28;20793;-58
2022/05/29 08:19:36;;;;;;;6.57;2.60;;;14.60;99.90;;;;;;5093384;28;20870;-58
2022/05/29 08:22:06;;;;;;;4.30;2.97;;;14.70;99.90;;;;;;5093867;28;20793;-58
2022/05/29 08:32:58;;;;;;;5.20;3.30;;;14.90;99.90;;;;;;5097468;28;20427;-58
2022/05/29 08:35:25;;;;;;;7.70;2.73;;;14.80;99.90;;;;;;5096682;28;20812;-58
2022/05/29 08:37:55;;;;;;;9.00;3.10;;;15.40;99.90;;;;;;5097002;28;20439;-59
2022/05/29 08:40:23;;;;;;;8.50;2.90;;;15.40;99.70;;;;;;5098171;28;20459;-58
2022/05/29 08:42:51;;;;;;;5.53;2.57;;;15.80;99.80;;;;;;5096954;28;20451;-59
2022/05/29 08:45:19;;;;;;;4.20;2.80;;;15.60;99.20;;;;;;5095820;28;20910;-58
2022/05/29 08:47:47;;;;;;;3.50;2.27;;;15.80;99.00;;;;;;5096671;28;20924;-59
2022/05/29 08:50:20;;;;;;;2.70;2.30;;;15.40;99.00;;;;;;5096268;28;20546;-58
2022/05/29 08:53:01;;;;;;;6.60;3.47;;;14.70;99.20;;;;;;5096948;28;20435;-58
2022/05/29 08:55:31;;;;;;;6.60;3.87;;;14.70;99.60;;;;;;5096270;28;20440;-59
2022/05/29 08:58:21;;;;;;;6.23;2.83;;;14.20;99.90;;;;;;5096397;28;20472;-58
2022/05/29 09:00:56;;;;;;;3.93;3.10;;;13.90;99.90;;;;;;5096369;28;20514;-60
2022/05/29 09:03:45;;;;;;;5.57;2.63;;;14.30;99.90;;;;;;5096360;28;20424;-58
2022/05/29 09:06:17;;;;;;;5.73;2.90;;;14.50;99.90;;;;;;5096595;28;20456;-58
2022/05/29 09:08:51;;;;;;;6.00;3.23;;;14.50;99.90;;;;;;5096880;28;20810;-58
2022/05/29 09:11:23;;;;;;;3.90;2.67;;;14.20;99.90;;;;;;5096163;28;20996;-58
2022/05/29 09:13:55;;;;;;;5.70;3.37;;;14.00;99.90;;;;;;5096565;28;20446;-59
2022/05/29 09:16:25;;;;;;;5.07;3.10;;;14.20;99.90;;;;;;5095990;28;20434;-59
2022/05/29 09:19:06;;;;;;;6.50;3.13;;;14.10;99.90;;;;;;5096458;28;20551;-59
2022/05/29 09:21:50;;;;;;;6.33;3.80;;;14.20;99.90;;;;;;5096524;28;20965;-59
2022/05/29 09:24:44;;;;;;;5.47;3.83;;;14.20;99.90;;;;;;5095931;28;20436;-59
2022/05/29 09:27:12;;;;;;;4.57;3.00;;;14.20;99.90;;;;;;5095790;28;20531;-59
2022/05/29 09:29:39;;;;;;;4.90;3.00;;;14.20;99.90;;;;;;5095837;28;20850;-59
2022/05/29 09:32:11;;;;;;;9.10;3.33;;;13.80;99.90;;;;;;5096081;28;20536;-57
2022/05/29 09:34:39;;;;;;;5.53;3.23;;;14.00;99.90;;;;;;5096081;28;20432;-57
2022/05/29 09:37:14;;;;;;;2.70;2.10;;;14.50;99.90;;;;;;5094547;28;20844;-57
2022/05/29 09:39:46;;;;;;;5.27;3.53;;;14.50;99.90;;;;;;5095793;28;20529;-57
2022/05/29 09:42:20;;;;;;;6.37;2.93;;;14.50;99.90;;;;;;5095414;28;20518;-57
2022/05/29 09:45:11;;;;;;;5.90;3.60;;;14.80;99.90;;;;;;5095848;28;20498;-57
2022/05/29 09:50:26;;;;;;;10.30;2.90;;;16.10;99.90;;;;;;5055631;28;20440;-57
2022/05/29 09:52:54;;;;;;;5.40;2.33;;;17.40;99.90;;;;;;5055321;28;20457;-57
2022/05/29 09:55:29;;;;;;;7.20;2.90;;;17.80;99.00;;;;;;5055747;28;20457;-57
2022/05/29 09:58:00;;;;;;;5.20;2.70;;;17.80;98.70;;;;;;5054944;28;20433;-57
2022/05/29 10:00:31;;;;;;;5.30;3.20;;;18.10;99.70;;;;;;5054757;28;20469;-58
2022/05/29 10:02:59;;;;;;;5.20;3.43;;;19.00;97.80;;;;;;5054916;28;20472;-58
2022/05/29 10:05:29;;;;;;;4.40;2.63;;;19.20;95.30;;;;;;5055156;28;20473;-57
2022/05/29 10:07:57;;;;;;;5.60;2.80;;;;;;;;;;5055076;28;20444;-58
2022/05/29 10:10:35;;;;;;;4.43;2.47;;;18.10;94.90;;;;;;5054667;28;20475;-58
2022/05/29 10:13:03;;;;;;;5.10;2.43;;;17.80;96.00;;;;;;5054601;28;20914;-58
2022/05/29 10:15:37;;;;;;;8.70;3.03;;;17.30;94.70;;;;;;5054930;28;20524;-58
2022/05/29 10:18:11;;;;;;;3.70;2.87;;;16.50;94.80;;;;;;5054988;28;20437;-58
2022/05/29 10:20:40;;;;;;;6.87;3.20;;;15.90;95.80;;;;;;5054835;28;20455;-58
2022/05/29 10:23:10;;;;;;;4.30;2.83;;;15.60;96.80;;;;;;5054784;28;20532;-57
2022/05/29 10:25:53;;;;;;;4.27;2.73;;;15.60;96.40;;;;;;5054545;28;20810;-57
2022/05/29 10:28:27;;;;;;;7.03;2.47;;;15.50;97.00;;;;;;5055503;28;20492;-57
2022/05/29 10:30:58;;;;;;;4.37;2.50;;;15.60;97.20;;;;;;5054373;28;20456;-57
2022/05/29 10:33:28;;;;;;;4.53;2.60;;;15.60;96.70;;;;;;5054696;28;20526;-57
2022/05/29 10:36:02;;;;;;;4.60;2.47;;;15.30;96.30;;;;;;5054561;28;20530;-58
2022/05/29 10:38:30;;;;;;;5.50;2.30;;;15.40;96.10;;;;;;5055087;28;20473;-58
2022/05/29 10:41:01;;;;;;;4.13;2.97;;;15.10;97.90;;;;;;5054132;28;20780;-58
2022/05/29 10:43:44;;;;;;;5.80;3.20;;;14.70;99.60;;;;;;5054134;28;20461;-58
2022/05/29 10:46:18;;;;;;;4.57;3.27;;;13.60;99.90;;;;;;5075842;28;20514;-58
2022/05/29 10:49:26;;;;;;;3.70;3.00;;;13.30;99.90;;;;;;5094122;28;20468;-58
2022/05/29 10:52:22;;;;;;;5.43;2.90;;;13.00;99.90;;;;;;5094540;28;20658;-59
2022/05/29 10:55:13;;;;;;;13.03;3.50;;;12.70;99.90;;;;;;5094063;28;20527;-57
2022/05/29 10:58:25;;;;;;;6.17;3.00;;;12.70;99.90;;;;;;5094032;28;20519;-57
2022/05/29 11:03:17;;;;;;;9.80;2.70;;;13.00;99.90;;;;;;5082517;28;20451;-57
2022/05/29 11:04:21;;;;;;;4.17;2.73;;;13.30;99.90;;;;;;5093782;28;20458;-59
2022/05/29 11:07:04;;;;;;;4.70;2.47;;;13.40;99.90;;;;;;5094283;28;20842;-59
2022/05/29 11:10:02;;;;;;;3.07;2.30;;;13.70;99.90;;;;;;5094218;28;20916;-58
2022/05/29 11:12:39;;;;;;;4.57;2.20;;;14.00;99.90;;;;;;5081402;28;20558;-59
2022/05/29 11:15:20;;;;;;;3.40;2.30;;;14.40;99.90;;;;;;5094449;28;20881;-58
2022/05/29 11:18:13;;;;;;;5.10;1.87;;;14.60;99.90;;;;;;5094094;28;20430;-59
2022/05/29 11:20:56;;;;;;;3.47;2.10;;;15.60;97.80;;;;;;5060891;28;20447;-58
2022/05/29 11:23:52;;;;;;;5.17;2.10;;;15.80;96.00;;;;;;5094025;28;20605;-57
2022/05/29 11:26:30;;;;;;;4.33;1.80;;;15.90;96.10;;;;;;5079421;28;20467;-58
2022/05/29 11:29:12;;;;;;;2.37;1.90;;;16.20;95.70;;;;;;5114579;28;20446;-58
2022/05/29 11:31:49;;;;;;;2.73;2.13;;;16.20;94.00;;;;;;5113905;28;20511;-58
2022/05/29 11:34:30;;;;;;;3.87;2.50;;;15.80;94.10;;;;;;5114264;28;20514;-58
2022/05/29 11:37:19;;;;;;;2.73;2.00;;;16.00;95.40;;;;;;5113953;28;20514;-58
2022/05/29 11:39:53;;;;;;;3.00;1.60;;;15.90;94.10;;;;;;5114672;28;20443;-59
2022/05/29 11:42:24;;;;;;;2.37;1.90;;;15.80;95.10;;;;;;5114225;28;20449;-58
2022/05/29 11:44:55;;;;;;;2.43;2.00;;;15.70;93.70;;;;;;5114334;28;20454;-58
2022/05/29 11:53:17;;;;;;;2.20;1.80;;;16.80;93.70;;;;;;5073286;28;20459;-58
2022/05/29 11:55:47;;;;;;;6.40;2.30;;;17.50;90.40;;;;;;5073088;28;20525;-58
2022/05/29 11:58:19;;;;;;;3.23;2.23;;;17.70;91.40;;;;;;5073673;28;21003;-57
2022/05/29 12:00:52;;;;;;;3.87;2.67;;;17.40;91.90;;;;;;5075246;28;20464;-58
2022/05/29 12:03:30;;;;;;;4.70;2.30;;;16.50;92.80;;;;;;5077185;28;20421;-58
2022/05/29 12:06:05;;;;;;;2.60;2.40;;;16.20;93.40;;;;;;5077500;28;20425;-58
2022/05/29 12:08:41;;;;;;;2.57;1.87;;;16.30;93.90;;;;;;5077337;28;20471;-59
2022/05/29 12:11:22;;;;;;;3.00;2.00;;;16.90;93.60;;;;;;5077024;28;20432;-58
2022/05/29 12:13:56;;;;;;;4.80;2.63;;;17.30;92.30;;;;;;5077268;28;20531;-59
2022/05/29 12:16:29;;;;;;;3.90;3.60;;;17.80;90.80;;;;;;5077184;28;20428;-58
2022/05/29 12:18:59;;;;;;;2.50;2.00;;;18.30;90.40;;;;;;5076721;28;21034;-58
2022/05/29 12:21:31;;;;;;;2.57;1.90;;;19.10;92.10;;;;;;5077047;28;20444;-58
2022/05/29 12:24:01;;;;;;;3.00;2.10;;;19.70;91.30;;;;;;5077047;28;20523;-58
2022/05/29 12:26:35;;;;;;;3.13;2.20;;;19.20;91.90;;;;;;5076500;28;20915;-58
2022/05/29 12:29:07;;;;;;;3.00;2.27;;;18.20;92.40;;;;;;5076861;28;20499;-58
2022/05/29 12:31:38;;;;;;;3.73;2.43;;;17.50;93.80;;;;;;5076842;28;20524;-58
2022/05/29 12:34:06;;;;;;;4.57;3.03;;;16.40;94.10;;;;;;5076882;28;20432;-58
2022/05/29 12:36:58;;;;;;;5.07;2.77;;;15.90;94.30;;;;;;5076469;28;20509;-59
2022/05/29 12:39:36;;;;;;;3.40;2.63;;;15.80;96.50;;;;;;5076626;28;20471;-58
2022/05/29 12:42:47;;;;;;;3.07;2.50;;;15.90;95.60;;;;;;5077100;28;20408;-59
2022/05/29 12:45:41;;;;;;;4.40;2.70;;;15.70;94.40;;;;;;5053083;28;20489;-57
2022/05/29 12:48:47;;;;;;;2.63;2.00;;;15.90;95.80;;;;;;5116851;27;20445;-57
2022/05/29 12:51:21;;;;;;;3.77;2.20;;;15.40;94.70;;;;;;5103457;28;20458;-58
2022/05/29 12:54:25;;;;;;;3.30;2.40;;;15.10;94.70;;;;;;5117272;28;20400;-58
2022/05/29 12:57:14;;;;;;;2.67;2.47;;;16.10;94.90;;;;;;5116772;28;20993;-59
2022/05/29 13:00:18;;;;;;;4.07;2.67;;;16.90;94.60;;;;;;5116806;28;20459;-58
2022/05/29 13:03:18;;;;;;;3.47;2.43;;;17.00;93.30;;;;;;5092505;27;20446;-57
2022/05/29 13:06:10;;;;;;;4.50;2.20;;;16.20;94.00;;;;;;5117018;28;20619;-59
2022/05/29 13:08:57;;;;;;;4.63;2.13;;;15.90;95.00;;;;;;5116750;28;20468;-58
2022/05/29 13:11:31;;;;;;;2.83;2.17;;;16.60;94.20;;;;;;5116588;28;20762;-59
2022/05/29 13:14:01;;;;;;;4.07;2.20;;;17.50;92.90;;;;;;5116833;28;20797;-58
2022/05/29 13:16:31;;;;;;;3.73;2.03;;;16.90;92.00;;;;;;5116817;28;20789;-59
2022/05/29 13:19:14;;;;;;;2.70;1.70;;;16.70;92.10;;;;;;5116922;28;20462;-58
2022/05/29 13:22:01;;;;;;;3.10;2.10;;;16.20;93.20;;;;;;5116748;28;20433;-58
2022/05/29 13:24:32;;;;;;;4.13;2.13;;;15.70;92.60;;;;;;5116332;28;20426;-58
2022/05/29 13:27:32;;;;;;;3.63;2.37;;;15.40;93.80;;;;;;5116066;28;20442;-59
2022/05/29 13:30:01;;;;;;;3.43;2.30;;;15.50;95.10;;;;;;5116021;28;20473;-57
2022/05/29 13:32:30;;;;;;;3.53;2.57;;;16.10;92.90;;;;;;5115877;28;20474;-58
2022/05/29 13:35:31;;;;;;;2.33;2.07;;;16.40;92.90;;;;;;5116368;28;20801;-58
2022/05/29 13:37:58;;;;;;;2.43;1.87;;;16.90;92.10;;;;;;5116385;28;20439;-58
2022/05/29 13:40:48;;;;;;;1.80;1.70;;;16.60;92.20;;;;;;5116234;28;20465;-58
2022/05/29 13:43:39;;;;;;;5.53;2.37;;;16.70;91.60;;;;;;5116252;28;20446;-58
2022/05/29 13:46:18;;;;;;;3.43;1.90;;;16.60;91.20;;;;;;5115525;28;20478;-58
2022/05/29 13:49:08;;;;;;;2.90;2.20;;;16.60;92.60;;;;;;5116062;28;20458;-58
2022/05/29 13:51:44;;;;;;;3.93;2.00;;;16.80;92.40;;;;;;5115835;28;20423;-58